sensor_id;sensor_type;location;lat;lon;timestamp;temperature;humidity
31309;DHT22;17936;52.446;10.840;2022-07-21T00:01:17;23.30;99.90
31309;DHT22;17936;52.446;10.840;2022-07-21T00:03:42;23.20;99.90
31309;DHT22;17936;52.446;10.840;2022-07-21T00:06:08;23.20;99.90
31309;DHT22;17936;52.446;10.840;2022-07-21T00:08:34;23.10;99.90
31309;DHT22;17936;52.446;10.840;2022-07-21T00:10:59;22.90;1.00
31309;DHT22;17936;52.446;10.840;2022-07-21T00:13:25;22.80;1.00
31309;DHT22;17936;52.446;10.840;2022-07-21T00:15:51;22.90;1.00
31309;DHT22;17936;52.446;10.840;2022-07-21T00:18:17;22.90;99.90
31309;DHT22;17936;52.446;10.840;2022-07-21T00:20:43;22.80;99.90
31309;DHT22;17936;52.446;10.840;2022-07-21T00:23:09;22.70;99.90
31309;DHT22;17936;52.446;10.840;2022-07-21T00:25:34;22.60;99.90
31309;DHT22;17936;52.446;10.840;2022-07-21T00:28:04;22.70;99.90
31309;DHT22;17936;52.446;10.840;2022-07-21T00:30:31;22.70;99.90
31309;DHT22;17936;52.446;10.840;2022-07-21T00:32:57;22.60;99.90
31309;DHT22;17936;52.446;10.840;2022-07-21T00:35:23;22.50;97.30
31309;DHT22;17936;52.446;10.840;2022-07-21T00:37:48;22.50;1.00
31309;DHT22;17936;52.446;10.840;2022-07-21T00:40:15;22.40;99.90
31309;DHT22;17936;52.446;10.840;2022-07-21T00:42:42;22.40;44.80
31309;DHT22;17936;52.446;10.840;2022-07-21T00:45:08;22.30;1.00
31309;DHT22;17936;52.446;10.840;2022-07-21T00:47:34;22.30;99.90
31309;DHT22;17936;52.446;10.840;2022-07-21T00:50:05;22.20;99.90
31309;DHT22;17936;52.446;10.840;2022-07-21T00:52:31;22.20;99.90
31309;DHT22;17936;52.446;10.840;2022-07-21T00:54:56;22.10;99.90
31309;DHT22;17936;52.446;10.840;2022-07-21T00:57:22;22.10;99.90
31309;DHT22;17936;52.446;10.840;2022-07-21T00:59:48;22.10;99.90
31309;DHT22;17936;52.446;10.840;2022-07-21T01:02:13;22.10;99.90
31309;DHT22;17936;52.446;10.840;2022-07-21T01:04:39;22.10;99.90
31309;DHT22;17936;52.446;10.840;2022-07-21T01:07:05;22.00;99.90
31309;DHT22;17936;52.446;10.840;2022-07-21T01:09:33;22.00;99.90
31309;DHT22;17936;52.446;10.840;2022-07-21T01:11:58;22.00;63.60
31309;DHT22;17936;52.446;10.840;2022-07-21T01:14:25;22.00;99.90
31309;DHT22;17936;52.446;10.840;2022-07-21T01:16:51;21.90;1.00
31309;DHT22;17936;52.446;10.840;2022-07-21T01:19:16;21.90;99.90
31309;DHT22;17936;52.446;10.840;2022-07-21T01:21:45;21.90;1.00
31309;DHT22;17936;52.446;10.840;2022-07-21T01:24:11;21.90;99.90
31309;DHT22;17936;52.446;10.840;2022-07-21T01:26:44;21.80;99.90
31309;DHT22;17936;52.446;10.840;2022-07-21T01:29:10;21.80;4.80
31309;DHT22;17936;52.446;10.840;2022-07-21T01:31:38;21.90;99.90
31309;DHT22;17936;52.446;10.840;2022-07-21T01:34:04;21.80;99.90
31309;DHT22;17936;52.446;10.840;2022-07-21T01:36:29;21.80;99.90
31309;DHT22;17936;52.446;10.840;2022-07-21T01:38:55;21.70;1.00
31309;DHT22;17936;52.446;10.840;2022-07-21T01:41:39;21.70;30.40
31309;DHT22;17936;52.446;10.840;2022-07-21T01:44:07;21.70;99.90
31309;DHT22;17936;52.446;10.840;2022-07-21T01:46:39;21.70;99.90
31309;DHT22;17936;52.446;10.840;2022-07-21T01:49:05;21.60;99.90
31309;DHT22;17936;52.446;10.840;2022-07-21T01:51:32;21.60;99.90
31309;DHT22;17936;52.446;10.840;2022-07-21T01:53:58;21.60;99.90
31309;DHT22;17936;52.446;10.840;2022-07-21T01:56:24;21.50;99.90
31309;DHT22;17936;52.446;10.840;2022-07-21T01:58:52;21.50;99.90
31309;DHT22;17936;52.446;10.840;2022-07-21T02:01:18;21.50;99.90
31309;DHT22;17936;52.446;10.840;2022-07-21T02:03:45;21.50;99.90
31309;DHT22;17936;52.446;10.840;2022-07-21T02:06:11;21.40;1.00
31309;DHT22;17936;52.446;10.840;2022-07-21T02:08:37;21.40;1.00
31309;DHT22;17936;52.446;10.840;2022-07-21T02:11:04;21.40;1.00
31309;DHT22;17936;52.446;10.840;2022-07-21T02:13:29;21.30;1.00
31309;DHT22;17936;52.446;10.840;2022-07-21T02:15:55;21.40;1.00
31309;DHT22;17936;52.446;10.840;2022-07-21T02:18:21;21.30;1.00
31309;DHT22;17936;52.446;10.840;2022-07-21T02:20:47;21.30;1.00
31309;DHT22;17936;52.446;10.840;2022-07-21T02:23:21;21.30;1.00
31309;DHT22;17936;52.446;10.840;2022-07-21T02:25:47;21.30;1.00
31309;DHT22;17936;52.446;10.840;2022-07-21T02:28:13;21.30;1.00
31309;DHT22;17936;52.446;10.840;2022-07-21T02:30:38;21.30;1.00
31309;DHT22;17936;52.446;10.840;2022-07-21T02:33:04;21.40;1.00
31309;DHT22;17936;52.446;10.840;2022-07-21T02:35:30;21.40;1.00
31309;DHT22;17936;52.446;10.840;2022-07-21T02:37:55;21.40;1.00
31309;DHT22;17936;52.446;10.840;2022-07-21T02:40:21;21.40;1.00
31309;DHT22;17936;52.446;10.840;2022-07-21T02:42:46;21.50;1.00
31309;DHT22;17936;52.446;10.840;2022-07-21T02:45:12;21.40;1.00
31309;DHT22;17936;52.446;10.840;2022-07-21T02:47:53;21.40;1.00
31309;DHT22;17936;52.446;10.840;2022-07-21T02:50:21;21.40;1.00
31309;DHT22;17936;52.446;10.840;2022-07-21T02:52:47;21.40;1.00
31309;DHT22;17936;52.446;10.840;2022-07-21T02:55:13;21.40;1.00
31309;DHT22;17936;52.446;10.840;2022-07-21T02:57:39;21.40;1.00
31309;DHT22;17936;52.446;10.840;2022-07-21T03:00:06;21.40;1.00
31309;DHT22;17936;52.446;10.840;2022-07-21T03:02:32;21.40;1.60
31309;DHT22;17936;52.446;10.840;2022-07-21T03:04:58;21.30;5.20
31309;DHT22;17936;52.446;10.840;2022-07-21T03:07:23;21.40;6.10
31309;DHT22;17936;52.446;10.840;2022-07-21T03:09:49;21.40;6.60
31309;DHT22;17936;52.446;10.840;2022-07-21T03:12:14;21.40;10.20
31309;DHT22;17936;52.446;10.840;2022-07-21T03:14:40;21.40;11.70
31309;DHT22;17936;52.446;10.840;2022-07-21T03:17:05;21.30;11.30
31309;DHT22;17936;52.446;10.840;2022-07-21T03:19:31;21.30;12.50
31309;DHT22;17936;52.446;10.840;2022-07-21T03:21:56;21.30;13.70
31309;DHT22;17936;52.446;10.840;2022-07-21T03:24:22;21.30;14.70
31309;DHT22;17936;52.446;10.840;2022-07-21T03:26:47;21.30;13.30
31309;DHT22;17936;52.446;10.840;2022-07-21T03:29:13;21.20;13.00
31309;DHT22;17936;52.446;10.840;2022-07-21T03:31:38;21.30;9.20
31309;DHT22;17936;52.446;10.840;2022-07-21T03:34:04;21.30;8.90
31309;DHT22;17936;52.446;10.840;2022-07-21T03:36:29;21.20;8.50
31309;DHT22;17936;52.446;10.840;2022-07-21T03:38:55;21.20;4.10
31309;DHT22;17936;52.446;10.840;2022-07-21T03:41:20;21.20;2.00
31309;DHT22;17936;52.446;10.840;2022-07-21T03:43:46;21.20;1.00
31309;DHT22;17936;52.446;10.840;2022-07-21T03:46:11;21.20;1.00
31309;DHT22;17936;52.446;10.840;2022-07-21T03:48:37;21.20;1.00
31309;DHT22;17936;52.446;10.840;2022-07-21T03:51:03;21.20;1.00
31309;DHT22;17936;52.446;10.840;2022-07-21T03:53:28;21.20;1.00
31309;DHT22;17936;52.446;10.840;2022-07-21T03:55:54;21.30;1.00
31309;DHT22;17936;52.446;10.840;2022-07-21T03:58:19;21.30;1.00
31309;DHT22;17936;52.446;10.840;2022-07-21T04:00:45;21.40;1.00
31309;DHT22;17936;52.446;10.840;2022-07-21T04:03:11;21.40;1.00
31309;DHT22;17936;52.446;10.840;2022-07-21T04:05:38;21.40;1.00
31309;DHT22;17936;52.446;10.840;2022-07-21T04:08:05;21.40;1.00
31309;DHT22;17936;52.446;10.840;2022-07-21T04:10:33;21.40;1.00
31309;DHT22;17936;52.446;10.840;2022-07-21T04:13:01;21.50;1.00
31309;DHT22;17936;52.446;10.840;2022-07-21T04:15:27;21.50;1.00
31309;DHT22;17936;52.446;10.840;2022-07-21T04:17:53;21.50;1.00
31309;DHT22;17936;52.446;10.840;2022-07-21T04:20:19;21.50;1.00
31309;DHT22;17936;52.446;10.840;2022-07-21T04:22:46;21.50;1.00
31309;DHT22;17936;52.446;10.840;2022-07-21T04:25:12;21.60;1.00
31309;DHT22;17936;52.446;10.840;2022-07-21T04:27:38;21.60;1.00
31309;DHT22;17936;52.446;10.840;2022-07-21T04:30:06;21.70;1.00
31309;DHT22;17936;52.446;10.840;2022-07-21T04:32:32;21.60;1.00
31309;DHT22;17936;52.446;10.840;2022-07-21T04:34:57;21.60;1.00
31309;DHT22;17936;52.446;10.840;2022-07-21T04:37:23;21.70;1.00
31309;DHT22;17936;52.446;10.840;2022-07-21T04:39:49;21.50;1.00
31309;DHT22;17936;52.446;10.840;2022-07-21T04:42:14;21.60;1.00
31309;DHT22;17936;52.446;10.840;2022-07-21T04:44:40;21.70;1.00
31309;DHT22;17936;52.446;10.840;2022-07-21T04:47:05;21.60;1.00
31309;DHT22;17936;52.446;10.840;2022-07-21T04:49:31;21.70;1.00
31309;DHT22;17936;52.446;10.840;2022-07-21T04:51:56;21.60;1.00
31309;DHT22;17936;52.446;10.840;2022-07-21T04:54:22;21.60;6.60
31309;DHT22;17936;52.446;10.840;2022-07-21T04:56:48;21.60;7.10
31309;DHT22;17936;52.446;10.840;2022-07-21T04:59:13;21.60;1.50
31309;DHT22;17936;52.446;10.840;2022-07-21T05:01:39;21.60;1.00
31309;DHT22;17936;52.446;10.840;2022-07-21T05:04:06;21.60;3.40
31309;DHT22;17936;52.446;10.840;2022-07-21T05:06:32;21.50;7.20
31309;DHT22;17936;52.446;10.840;2022-07-21T05:08:58;21.40;13.90
31309;DHT22;17936;52.446;10.840;2022-07-21T05:11:23;21.30;19.30
31309;DHT22;17936;52.446;10.840;2022-07-21T05:13:49;21.30;21.10
31309;DHT22;17936;52.446;10.840;2022-07-21T05:16:14;21.20;37.00
31309;DHT22;17936;52.446;10.840;2022-07-21T05:18:40;21.10;51.30
31309;DHT22;17936;52.446;10.840;2022-07-21T05:21:05;21.10;67.00
31309;DHT22;17936;52.446;10.840;2022-07-21T05:23:31;20.90;86.30
31309;DHT22;17936;52.446;10.840;2022-07-21T05:25:57;20.80;90.80
31309;DHT22;17936;52.446;10.840;2022-07-21T05:28:22;20.70;92.30
31309;DHT22;17936;52.446;10.840;2022-07-21T05:30:47;20.50;95.80
31309;DHT22;17936;52.446;10.840;2022-07-21T05:33:13;20.50;95.60
31309;DHT22;17936;52.446;10.840;2022-07-21T05:35:38;20.50;99.00
31309;DHT22;17936;52.446;10.840;2022-07-21T05:38:04;20.40;99.90
31309;DHT22;17936;52.446;10.840;2022-07-21T05:40:30;20.50;99.90
31309;DHT22;17936;52.446;10.840;2022-07-21T05:42:56;20.50;99.90
31309;DHT22;17936;52.446;10.840;2022-07-21T05:45:21;20.60;99.90
31309;DHT22;17936;52.446;10.840;2022-07-21T05:47:47;20.60;99.90
31309;DHT22;17936;52.446;10.840;2022-07-21T05:50:13;20.60;99.90
31309;DHT22;17936;52.446;10.840;2022-07-21T05:52:38;20.80;99.90
31309;DHT22;17936;52.446;10.840;2022-07-21T05:55:04;20.70;99.90
31309;DHT22;17936;52.446;10.840;2022-07-21T05:57:30;20.50;99.90
31309;DHT22;17936;52.446;10.840;2022-07-21T05:59:56;20.50;99.90
31309;DHT22;17936;52.446;10.840;2022-07-21T06:02:21;20.40;99.90
31309;DHT22;17936;52.446;10.840;2022-07-21T06:04:47;20.20;99.90
31309;DHT22;17936;52.446;10.840;2022-07-21T06:07:12;20.20;99.90
31309;DHT22;17936;52.446;10.840;2022-07-21T06:09:38;20.00;99.90
31309;DHT22;17936;52.446;10.840;2022-07-21T06:12:03;19.90;99.90
31309;DHT22;17936;52.446;10.840;2022-07-21T06:14:29;19.90;99.90
31309;DHT22;17936;52.446;10.840;2022-07-21T06:16:54;20.10;99.90
31309;DHT22;17936;52.446;10.840;2022-07-21T06:19:20;20.00;99.90
31309;DHT22;17936;52.446;10.840;2022-07-21T06:21:46;20.00;99.90
31309;DHT22;17936;52.446;10.840;2022-07-21T06:24:11;20.10;99.90
31309;DHT22;17936;52.446;10.840;2022-07-21T06:26:37;20.20;99.90
31309;DHT22;17936;52.446;10.840;2022-07-21T06:29:04;20.10;99.90
31309;DHT22;17936;52.446;10.840;2022-07-21T06:31:29;20.20;99.90
31309;DHT22;17936;52.446;10.840;2022-07-21T06:33:55;20.20;99.90
31309;DHT22;17936;52.446;10.840;2022-07-21T06:36:20;20.10;99.90
31309;DHT22;17936;52.446;10.840;2022-07-21T06:38:46;20.20;99.90
31309;DHT22;17936;52.446;10.840;2022-07-21T06:41:12;20.20;99.90
31309;DHT22;17936;52.446;10.840;2022-07-21T06:43:37;20.60;99.90
31309;DHT22;17936;52.446;10.840;2022-07-21T06:46:03;20.80;99.90
31309;DHT22;17936;52.446;10.840;2022-07-21T06:48:28;21.20;99.90
31309;DHT22;17936;52.446;10.840;2022-07-21T06:50:55;21.60;99.90
31309;DHT22;17936;52.446;10.840;2022-07-21T06:53:22;21.90;99.90
31309;DHT22;17936;52.446;10.840;2022-07-21T06:55:48;22.60;87.30
31309;DHT22;17936;52.446;10.840;2022-07-21T06:58:19;23.00;66.10
31309;DHT22;17936;52.446;10.840;2022-07-21T07:00:46;22.40;72.50
31309;DHT22;17936;52.446;10.840;2022-07-21T07:03:12;22.50;68.40
31309;DHT22;17936;52.446;10.840;2022-07-21T07:05:38;22.50;58.90
31309;DHT22;17936;52.446;10.840;2022-07-21T07:08:04;22.90;42.70
31309;DHT22;17936;52.446;10.840;2022-07-21T07:10:30;23.20;43.20
31309;DHT22;17936;52.446;10.840;2022-07-21T07:12:56;23.50;20.50
31309;DHT22;17936;52.446;10.840;2022-07-21T07:15:22;23.40;5.80
31309;DHT22;17936;52.446;10.840;2022-07-21T07:17:48;23.60;14.20
31309;DHT22;17936;52.446;10.840;2022-07-21T07:20:14;23.50;24.30
31309;DHT22;17936;52.446;10.840;2022-07-21T07:22:39;23.20;4.70
31309;DHT22;17936;52.446;10.840;2022-07-21T07:25:05;23.00;23.20
31309;DHT22;17936;52.446;10.840;2022-07-21T07:27:31;23.90;1.00
31309;DHT22;17936;52.446;10.840;2022-07-21T07:29:56;24.60;1.00
31309;DHT22;17936;52.446;10.840;2022-07-21T07:32:22;24.40;1.00
31309;DHT22;17936;52.446;10.840;2022-07-21T07:34:47;23.10;13.20
31309;DHT22;17936;52.446;10.840;2022-07-21T07:37:13;22.60;41.90
31309;DHT22;17936;52.446;10.840;2022-07-21T07:39:39;22.80;27.60
31309;DHT22;17936;52.446;10.840;2022-07-21T07:42:05;23.10;15.80
31309;DHT22;17936;52.446;10.840;2022-07-21T07:44:31;23.20;18.90
31309;DHT22;17936;52.446;10.840;2022-07-21T07:46:57;24.40;1.00
31309;DHT22;17936;52.446;10.840;2022-07-21T07:49:23;24.60;1.00
31309;DHT22;17936;52.446;10.840;2022-07-21T07:51:48;25.20;1.00
31309;DHT22;17936;52.446;10.840;2022-07-21T07:54:14;24.30;1.00
31309;DHT22;17936;52.446;10.840;2022-07-21T07:56:41;24.70;1.00
31309;DHT22;17936;52.446;10.840;2022-07-21T07:59:07;24.60;1.00
31309;DHT22;17936;52.446;10.840;2022-07-21T08:01:33;23.70;1.00
31309;DHT22;17936;52.446;10.840;2022-07-21T08:03:58;23.20;12.20
31309;DHT22;17936;52.446;10.840;2022-07-21T08:06:24;23.50;1.00
31309;DHT22;17936;52.446;10.840;2022-07-21T08:08:49;23.50;10.60
31309;DHT22;17936;52.446;10.840;2022-07-21T08:11:15;23.70;13.50
31309;DHT22;17936;52.446;10.840;2022-07-21T08:13:41;24.70;1.00
31309;DHT22;17936;52.446;10.840;2022-07-21T08:16:07;24.10;1.00
31309;DHT22;17936;52.446;10.840;2022-07-21T08:18:32;23.60;8.40
31309;DHT22;17936;52.446;10.840;2022-07-21T08:20:58;23.70;8.30
31309;DHT22;17936;52.446;10.840;2022-07-21T08:23:23;23.50;5.00
31309;DHT22;17936;52.446;10.840;2022-07-21T08:25:49;23.60;3.00
31309;DHT22;17936;52.446;10.840;2022-07-21T08:28:15;24.00;1.00
31309;DHT22;17936;52.446;10.840;2022-07-21T08:30:40;24.60;1.00
31309;DHT22;17936;52.446;10.840;2022-07-21T08:33:06;24.40;1.00
31309;DHT22;17936;52.446;10.840;2022-07-21T08:35:32;24.10;1.00
31309;DHT22;17936;52.446;10.840;2022-07-21T08:38:04;23.90;1.00
31309;DHT22;17936;52.446;10.840;2022-07-21T08:40:31;24.40;1.00
31309;DHT22;17936;52.446;10.840;2022-07-21T08:42:57;24.20;1.00
31309;DHT22;17936;52.446;10.840;2022-07-21T08:45:23;25.00;1.00
31309;DHT22;17936;52.446;10.840;2022-07-21T08:47:51;26.00;99.90
31309;DHT22;17936;52.446;10.840;2022-07-21T08:50:17;25.60;99.90
31309;DHT22;17936;52.446;10.840;2022-07-21T08:52:43;25.30;99.90
31309;DHT22;17936;52.446;10.840;2022-07-21T08:55:08;25.70;99.90
31309;DHT22;17936;52.446;10.840;2022-07-21T08:57:38;25.20;99.90
31309;DHT22;17936;52.446;10.840;2022-07-21T09:00:06;26.30;99.90
31309;DHT22;17936;52.446;10.840;2022-07-21T09:02:34;27.00;57.50
31309;DHT22;17936;52.446;10.840;2022-07-21T09:05:00;26.00;99.90
31309;DHT22;17936;52.446;10.840;2022-07-21T09:07:26;25.90;78.80
31309;DHT22;17936;52.446;10.840;2022-07-21T09:10:10;26.10;35.70
31309;DHT22;17936;52.446;10.840;2022-07-21T09:12:51;26.40;1.00
31309;DHT22;17936;52.446;10.840;2022-07-21T09:15:19;26.90;99.90
31309;DHT22;17936;52.446;10.840;2022-07-21T09:17:45;27.00;99.90
31309;DHT22;17936;52.446;10.840;2022-07-21T09:20:24;26.80;99.90
31309;DHT22;17936;52.446;10.840;2022-07-21T09:23:11;25.60;46.30
31309;DHT22;17936;52.446;10.840;2022-07-21T09:25:39;26.90;99.90
31309;DHT22;17936;52.446;10.840;2022-07-21T09:28:15;26.60;99.90
31309;DHT22;17936;52.446;10.840;2022-07-21T09:33:34;27.10;99.90
31309;DHT22;17936;52.446;10.840;2022-07-21T09:36:19;27.00;99.90
31309;DHT22;17936;52.446;10.840;2022-07-21T09:38:54;27.70;99.90
31309;DHT22;17936;52.446;10.840;2022-07-21T09:41:25;28.00;99.90
31309;DHT22;17936;52.446;10.840;2022-07-21T09:43:55;27.40;14.30
31309;DHT22;17936;52.446;10.840;2022-07-21T09:46:29;27.20;99.90
31309;DHT22;17936;52.446;10.840;2022-07-21T09:48:57;26.70;99.90
31309;DHT22;17936;52.446;10.840;2022-07-21T09:51:27;27.40;99.90
31309;DHT22;17936;52.446;10.840;2022-07-21T09:54:04;26.70;99.90
31309;DHT22;17936;52.446;10.840;2022-07-21T09:56:34;25.90;39.30
31309;DHT22;17936;52.446;10.840;2022-07-21T09:59:00;25.30;99.90
31309;DHT22;17936;52.446;10.840;2022-07-21T10:01:27;25.60;99.90
31309;DHT22;17936;52.446;10.840;2022-07-21T10:03:54;25.60;99.90
31309;DHT22;17936;52.446;10.840;2022-07-21T10:06:31;25.50;99.90
31309;DHT22;17936;52.446;10.840;2022-07-21T10:08:59;25.20;99.90
31309;DHT22;17936;52.446;10.840;2022-07-21T10:11:26;25.50;99.90
31309;DHT22;17936;52.446;10.840;2022-07-21T10:13:52;25.60;99.90
31309;DHT22;17936;52.446;10.840;2022-07-21T10:16:18;25.80;99.90
31309;DHT22;17936;52.446;10.840;2022-07-21T10:19:13;26.40;99.90
31309;DHT22;17936;52.446;10.840;2022-07-21T10:24:30;25.70;99.90
31309;DHT22;17936;52.446;10.840;2022-07-21T10:27:03;25.20;99.90
31309;DHT22;17936;52.446;10.840;2022-07-21T10:32:16;24.90;1.00
31309;DHT22;17936;52.446;10.840;2022-07-21T10:34:42;25.10;1.00
31309;DHT22;17936;52.446;10.840;2022-07-21T10:37:11;25.60;99.90
31309;DHT22;17936;52.446;10.840;2022-07-21T10:39:56;26.30;99.90
31309;DHT22;17936;52.446;10.840;2022-07-21T10:42:21;26.20;99.90
31309;DHT22;17936;52.446;10.840;2022-07-21T10:44:47;26.90;99.90
31309;DHT22;17936;52.446;10.840;2022-07-21T10:47:21;26.20;99.90
31309;DHT22;17936;52.446;10.840;2022-07-21T10:49:56;25.80;99.90
31309;DHT22;17936;52.446;10.840;2022-07-21T10:55:13;26.70;99.90
31309;DHT22;17936;52.446;10.840;2022-07-21T10:57:46;27.30;99.90
31309;DHT22;17936;52.446;10.840;2022-07-21T11:00:19;26.70;58.50
31309;DHT22;17936;52.446;10.840;2022-07-21T11:02:54;26.00;99.90
31309;DHT22;17936;52.446;10.840;2022-07-21T11:05:21;25.70;99.90
31309;DHT22;17936;52.446;10.840;2022-07-21T11:08:10;26.00;99.90
31309;DHT22;17936;52.446;10.840;2022-07-21T11:13:07;27.60;1.00
31309;DHT22;17936;52.446;10.840;2022-07-21T11:16:02;26.30;99.90
31309;DHT22;17936;52.446;10.840;2022-07-21T11:18:30;25.90;99.90
31309;DHT22;17936;52.446;10.840;2022-07-21T11:23:44;25.50;99.90
31309;DHT22;17936;52.446;10.840;2022-07-21T11:26:11;25.50;99.90
31309;DHT22;17936;52.446;10.840;2022-07-21T11:28:37;25.60;99.90
31309;DHT22;17936;52.446;10.840;2022-07-21T11:31:08;26.00;99.90
31309;DHT22;17936;52.446;10.840;2022-07-21T11:33:43;25.60;99.90
31309;DHT22;17936;52.446;10.840;2022-07-21T11:36:09;25.90;99.90
31309;DHT22;17936;52.446;10.840;2022-07-21T11:38:35;25.80;99.90
31309;DHT22;17936;52.446;10.840;2022-07-21T11:41:14;26.10;99.90
31309;DHT22;17936;52.446;10.840;2022-07-21T11:43:45;26.20;95.20
31309;DHT22;17936;52.446;10.840;2022-07-21T11:46:11;26.10;73.90
31309;DHT22;17936;52.446;10.840;2022-07-21T11:48:37;26.20;1.00
31309;DHT22;17936;52.446;10.840;2022-07-21T11:51:03;26.80;1.00
31309;DHT22;17936;52.446;10.840;2022-07-21T11:53:30;27.10;49.80
31309;DHT22;17936;52.446;10.840;2022-07-21T11:55:55;26.00;99.90
31309;DHT22;17936;52.446;10.840;2022-07-21T11:58:21;25.90;3.50
31309;DHT22;17936;52.446;10.840;2022-07-21T12:00:47;26.10;99.90
31309;DHT22;17936;52.446;10.840;2022-07-21T12:03:13;26.20;35.90
31309;DHT22;17936;52.446;10.840;2022-07-21T12:05:42;25.90;1.00
31309;DHT22;17936;52.446;10.840;2022-07-21T12:08:08;25.90;99.90
31309;DHT22;17936;52.446;10.840;2022-07-21T12:10:34;25.90;19.60
31309;DHT22;17936;52.446;10.840;2022-07-21T12:13:04;26.00;99.90
31309;DHT22;17936;52.446;10.840;2022-07-21T12:15:32;25.90;99.90
31309;DHT22;17936;52.446;10.840;2022-07-21T12:18:07;25.70;45.50
31309;DHT22;17936;52.446;10.840;2022-07-21T12:20:35;26.20;1.00
31309;DHT22;17936;52.446;10.840;2022-07-21T12:23:18;26.60;9.20
31309;DHT22;17936;52.446;10.840;2022-07-21T12:25:44;26.90;1.00
31309;DHT22;17936;52.446;10.840;2022-07-21T12:28:10;27.80;99.90
31309;DHT22;17936;52.446;10.840;2022-07-21T12:30:37;27.90;99.90
31309;DHT22;17936;52.446;10.840;2022-07-21T12:33:14;27.70;99.90
31309;DHT22;17936;52.446;10.840;2022-07-21T12:35:42;28.00;99.90
31309;DHT22;17936;52.446;10.840;2022-07-21T12:38:13;26.90;99.90
31309;DHT22;17936;52.446;10.840;2022-07-21T12:40:41;27.50;99.90
31309;DHT22;17936;52.446;10.840;2022-07-21T12:43:13;27.20;99.90
31309;DHT22;17936;52.446;10.840;2022-07-21T12:45:52;28.40;99.90
31309;DHT22;17936;52.446;10.840;2022-07-21T12:48:29;28.80;1.00
31309;DHT22;17936;52.446;10.840;2022-07-21T12:51:15;29.00;99.90
31309;DHT22;17936;52.446;10.840;2022-07-21T12:56:12;27.60;99.90
31309;DHT22;17936;52.446;10.840;2022-07-21T12:58:39;27.80;55.00
31309;DHT22;17936;52.446;10.840;2022-07-21T13:01:05;28.90;1.00
31309;DHT22;17936;52.446;10.840;2022-07-21T13:03:32;28.30;99.90
31309;DHT22;17936;52.446;10.840;2022-07-21T13:05:59;27.80;1.00
31309;DHT22;17936;52.446;10.840;2022-07-21T13:08:25;27.30;1.00
31309;DHT22;17936;52.446;10.840;2022-07-21T13:10:51;27.10;99.90
31309;DHT22;17936;52.446;10.840;2022-07-21T13:13:16;27.30;99.90
31309;DHT22;17936;52.446;10.840;2022-07-21T13:15:42;28.30;8.10
31309;DHT22;17936;52.446;10.840;2022-07-21T13:18:07;28.70;1.00
31309;DHT22;17936;52.446;10.840;2022-07-21T13:20:33;28.00;1.00
31309;DHT22;17936;52.446;10.840;2022-07-21T13:22:59;27.80;99.90
31309;DHT22;17936;52.446;10.840;2022-07-21T13:25:24;28.40;59.00
31309;DHT22;17936;52.446;10.840;2022-07-21T13:27:50;27.60;15.00
31309;DHT22;17936;52.446;10.840;2022-07-21T13:30:16;27.10;99.90
31309;DHT22;17936;52.446;10.840;2022-07-21T13:32:42;27.00;68.20
31309;DHT22;17936;52.446;10.840;2022-07-21T13:35:08;26.40;99.90
31309;DHT22;17936;52.446;10.840;2022-07-21T13:37:34;26.50;99.90
31309;DHT22;17936;52.446;10.840;2022-07-21T13:39:59;26.40;99.90
31309;DHT22;17936;52.446;10.840;2022-07-21T13:42:25;26.30;99.90
31309;DHT22;17936;52.446;10.840;2022-07-21T13:44:51;26.50;99.90
31309;DHT22;17936;52.446;10.840;2022-07-21T13:47:16;27.10;99.90
31309;DHT22;17936;52.446;10.840;2022-07-21T13:49:42;27.50;1.00
31309;DHT22;17936;52.446;10.840;2022-07-21T13:52:08;27.80;99.90
31309;DHT22;17936;52.446;10.840;2022-07-21T13:54:34;27.20;99.90
31309;DHT22;17936;52.446;10.840;2022-07-21T13:57:01;27.20;99.90
31309;DHT22;17936;52.446;10.840;2022-07-21T13:59:28;27.70;35.80
31309;DHT22;17936;52.446;10.840;2022-07-21T14:01:53;26.80;28.80
31309;DHT22;17936;52.446;10.840;2022-07-21T14:04:19;26.60;99.90
31309;DHT22;17936;52.446;10.840;2022-07-21T14:06:45;26.20;99.90
31309;DHT22;17936;52.446;10.840;2022-07-21T14:09:13;26.10;99.90
31309;DHT22;17936;52.446;10.840;2022-07-21T14:11:39;26.00;99.90
31309;DHT22;17936;52.446;10.840;2022-07-21T14:14:04;26.30;1.00
31309;DHT22;17936;52.446;10.840;2022-07-21T14:16:30;26.60;1.00
31309;DHT22;17936;52.446;10.840;2022-07-21T14:18:55;26.20;37.20
31309;DHT22;17936;52.446;10.840;2022-07-21T14:21:21;26.20;6.10
31309;DHT22;17936;52.446;10.840;2022-07-21T14:23:46;26.80;99.90
31309;DHT22;17936;52.446;10.840;2022-07-21T14:26:12;27.00;99.90
31309;DHT22;17936;52.446;10.840;2022-07-21T14:28:37;26.30;99.90
31309;DHT22;17936;52.446;10.840;2022-07-21T14:31:03;26.00;99.90
31309;DHT22;17936;52.446;10.840;2022-07-21T14:33:29;25.70;99.90
31309;DHT22;17936;52.446;10.840;2022-07-21T14:35:56;25.80;99.90
31309;DHT22;17936;52.446;10.840;2022-07-21T14:38:21;25.80;99.90
31309;DHT22;17936;52.446;10.840;2022-07-21T14:40:47;25.70;1.00
31309;DHT22;17936;52.446;10.840;2022-07-21T14:43:12;25.90;71.20
31309;DHT22;17936;52.446;10.840;2022-07-21T14:45:38;26.00;54.20
31309;DHT22;17936;52.446;10.840;2022-07-21T14:48:04;26.00;1.00
31309;DHT22;17936;52.446;10.840;2022-07-21T14:50:29;26.40;9.20
31309;DHT22;17936;52.446;10.840;2022-07-21T14:52:57;26.40;99.90
31309;DHT22;17936;52.446;10.840;2022-07-21T14:55:23;26.20;99.90
31309;DHT22;17936;52.446;10.840;2022-07-21T14:57:50;26.20;99.90
31309;DHT22;17936;52.446;10.840;2022-07-21T15:00:16;26.00;99.90
31309;DHT22;17936;52.446;10.840;2022-07-21T15:02:42;26.10;99.90
31309;DHT22;17936;52.446;10.840;2022-07-21T15:05:09;26.00;99.90
31309;DHT22;17936;52.446;10.840;2022-07-21T15:07:34;26.00;99.90
31309;DHT22;17936;52.446;10.840;2022-07-21T15:10:00;26.40;99.90
31309;DHT22;17936;52.446;10.840;2022-07-21T15:12:25;25.60;1.00
31309;DHT22;17936;52.446;10.840;2022-07-21T15:14:51;25.50;99.90
31309;DHT22;17936;52.446;10.840;2022-07-21T15:17:17;25.70;99.90
31309;DHT22;17936;52.446;10.840;2022-07-21T15:19:43;26.00;99.90
31309;DHT22;17936;52.446;10.840;2022-07-21T15:22:09;25.80;99.90
31309;DHT22;17936;52.446;10.840;2022-07-21T15:24:35;25.60;99.90
31309;DHT22;17936;52.446;10.840;2022-07-21T15:27:01;26.10;99.90
31309;DHT22;17936;52.446;10.840;2022-07-21T15:29:26;26.00;99.90
31309;DHT22;17936;52.446;10.840;2022-07-21T15:31:52;25.90;99.90
31309;DHT22;17936;52.446;10.840;2022-07-21T15:34:17;26.00;99.90
31309;DHT22;17936;52.446;10.840;2022-07-21T15:36:43;26.00;99.90
31309;DHT22;17936;52.446;10.840;2022-07-21T15:39:08;26.20;99.90